Forside
METAR-TAF:

METAR-TAF

Lufthavne :

Chariton Municipal Airport

Chariton, Iowa, USA

Breddekreds: 41-02N, længdekreds: 093-22W, højde: 320 m

Aktuelle vejr

Denne rapport blev lavet for 12 minutter siden, kl. 00:55 UTC
Vind stille
Temperatur -9°C
Fugtighed 79%
Tryk 1027 hPa
Sigt: 16.1 km
Spredte skyer i en højde af 2800 ft

METAR: KCNC 110055Z AUTO 00000KT 10SM SCT028 M09/M12 A3034 RMK AO2

Tid: 19:07 (01:07 UTC)


TAF: fraværende

Vejrobservationer og prognoser fra mere end 4000 lufthavne (METAR og TAF).

De gule og røde prikker repræsenterer de meteorologiske stationer.

Flyt musen over at se navnet på stationen.

Så klik over at se vejr observationer og prognoser.

At skifte det kort: Klik på de grønne knapper med et sort kors for at zoome ind; på den grønne knap med en bindestreg for at zoome ud; eller på de grønne pile for tilstødende kort.


METAR-TAF: